Time;durP1;ratioP1;P1;durP2;ratioP2;P2;SDS_P1;SDS_P2;PMS_P1;PMS_P2;Temp;Humidity;BMP_temperature;BMP_pressure;BME280_temperature;BME280_humidity;BME280_pressure;Samples;Min_cycle;Max_cycle;Signal;HPM_P1;HPM_P2
2021/08/01 00:01:01;;;;;;;;;8.00;8.00;;;;;19.30;52.52;100829.09;4940509;28;45375;-87
2021/08/01 00:03:29;;;;;;;;;8.75;8.50;;;;;19.40;52.80;100856.28;4959812;28;45319;-89
2021/08/01 00:05:54;;;;;;;;;10.25;9.25;;;;;19.31;52.96;100828.16;4948152;28;47344;-83
2021/08/01 00:08:20;;;;;;;;;12.25;10.75;;;;;19.31;53.07;100830.81;4946357;28;45493;-86
2021/08/01 00:10:45;;;;;;;;;9.25;8.50;;;;;19.36;52.94;100844.84;4959817;28;45230;-88
2021/08/01 00:13:11;;;;;;;;;10.25;8.25;;;;;19.31;53.15;100837.97;4941820;28;45425;-82
2021/08/01 00:15:36;;;;;;;;;7.00;7.00;;;;;19.22;53.16;100827.63;4942269;28;45494;-83
2021/08/01 00:18:02;;;;;;;;;9.50;8.25;;;;;19.23;53.15;100832.91;4942667;28;45413;-83
2021/08/01 00:20:31;;;;;;;;;7.50;6.75;;;;;19.19;53.01;100831.28;4940499;28;45458;-83
2021/08/01 00:22:56;;;;;;;;;7.00;7.00;;;;;19.21;53.19;100836.56;4943394;28;45266;-82
2021/08/01 00:25:22;;;;;;;;;7.00;6.00;;;;;19.17;53.76;100831.34;4931133;28;47013;-83
2021/08/01 00:27:49;;;;;;;;;7.25;6.50;;;;;19.15;53.62;100833.19;4939790;28;45284;-83
2021/08/01 00:30:15;;;;;;;;;9.25;8.75;;;;;19.15;53.61;100840.34;4952313;28;45304;-83
2021/08/01 00:32:43;;;;;;;;;8.50;7.50;;;;;19.17;53.93;100847.38;4955200;28;45379;-84
2021/08/01 00:35:09;;;;;;;;;8.25;8.25;;;;;19.16;53.73;100845.63;4925168;28;47645;-83
2021/08/01 00:37:35;;;;;;;;;8.75;6.25;;;;;19.06;53.95;100840.66;4925082;28;45340;-84
2021/08/01 00:40:02;;;;;;;;;8.25;8.25;;;;;19.05;54.27;100838.94;4941975;28;45292;-83
2021/08/01 00:42:30;;;;;;;;;6.75;6.50;;;;;19.08;54.21;100841.50;4941885;28;45433;-83
2021/08/01 00:44:56;;;;;;;;;6.75;6.75;;;;;19.04;54.14;100858.56;4941946;28;46410;-83
2021/08/01 00:47:22;;;;;;;;;6.25;6.25;;;;;18.98;54.24;100840.09;4925049;28;45408;-84
2021/08/01 00:49:47;;;;;;;;;9.50;8.25;;;;;19.02;54.25;100850.59;4959905;28;45361;-82
2021/08/01 00:52:14;;;;;;;;;8.00;7.00;;;;;18.94;54.98;100844.69;4933805;28;45427;-83
2021/08/01 00:54:39;;;;;;;;;8.75;8.75;;;;;18.95;54.52;100841.06;4954401;28;46366;-84
2021/08/01 00:57:05;;;;;;;;;9.75;9.75;;;;;18.93;54.62;100845.63;4940872;28;46023;-83
2021/08/01 00:59:35;;;;;;;;;8.00;8.00;;;;;18.92;54.78;100838.53;4946613;28;45327;-83
2021/08/01 01:02:27;;;;;;;;;6.00;6.00;;;;;18.93;54.72;100843.81;4934059;28;45529;-83
2021/08/01 01:05:01;;;;;;;;;10.50;8.25;;;;;18.90;54.84;100841.25;4942521;28;46219;-83
2021/08/01 01:07:38;;;;;;;;;8.50;7.00;;;;;18.87;54.87;100851.16;4947000;28;45398;-83
2021/08/01 01:10:07;;;;;;;;;7.00;7.00;;;;;18.84;54.92;100854.81;4941778;28;45430;-82
2021/08/01 01:12:37;;;;;;;;;7.75;6.75;;;;;18.81;55.41;100848.72;4924047;28;45491;-83
2021/08/01 01:15:11;;;;;;;;;5.25;5.00;;;;;18.74;55.25;100850.72;4941592;28;45314;-83
2021/08/01 01:17:38;;;;;;;;;8.75;7.00;;;;;18.70;55.35;100841.94;4924274;28;46018;-83
2021/08/01 01:20:06;;;;;;;;;7.75;7.00;;;;;18.76;55.77;100859.53;4941696;28;45309;-83
2021/08/01 01:22:32;;;;;;;;;9.00;7.00;;;;;18.78;55.69;100862.16;4941722;28;45501;-83
2021/08/01 01:24:57;;;;;;;;;7.75;6.50;;;;;18.69;55.68;100837.53;4924090;28;46226;-84
2021/08/01 01:27:42;;;;;;;;;7.50;7.50;;;;;18.79;55.67;100848.78;4942913;28;45361;-83
2021/08/01 01:30:09;;;;;;;;;7.00;6.00;;;;;18.70;55.64;100836.59;4927876;28;45462;-83
2021/08/01 01:32:58;;;;;;;;;7.50;7.25;;;;;18.72;55.24;100845.44;4954332;28;45275;-83
2021/08/01 01:35:23;;;;;;;;;6.00;4.50;;;;;18.72;55.29;100844.56;4927341;28;46375;-83
2021/08/01 01:37:54;;;;;;;;;7.00;7.00;;;;;18.68;55.07;100842.91;4956991;28;45320;-83
2021/08/01 01:40:21;;;;;;;;;7.50;7.50;;;;;18.60;55.76;100829.84;4927322;28;45492;-82
2021/08/01 01:42:50;;;;;;;;;4.25;4.25;;;;;18.63;55.90;100834.22;4927376;28;45496;-83
2021/08/01 01:45:18;;;;;;;;;6.25;4.00;;;;;18.60;55.97;100837.84;4944916;28;45488;-84
2021/08/01 01:47:45;;;;;;;;;5.00;5.00;;;;;18.57;55.67;100834.44;4927021;28;45418;-83
2021/08/01 01:50:12;;;;;;;;;10.50;7.50;;;;;18.64;56.14;100841.31;4956686;28;45296;-85
2021/08/01 01:52:40;;;;;;;;;7.50;7.50;;;;;18.67;56.40;100854.53;4944727;28;45271;-83
2021/08/01 01:55:06;;;;;;;;;6.25;5.25;;;;;18.65;56.18;100848.38;4944077;28;45613;-84
2021/08/01 01:57:32;;;;;;;;;7.00;4.75;;;;;18.62;56.16;100845.81;4944190;28;45606;-83
2021/08/01 01:59:59;;;;;;;;;7.00;4.50;;;;;18.60;55.92;100842.31;4943015;28;45476;-83
2021/08/01 02:02:24;;;;;;;;;5.75;5.00;;;;;18.55;56.18;100834.50;4939507;28;45768;-83
2021/08/01 02:04:54;;;;;;;;;5.75;4.50;;;;;18.55;55.98;100845.16;4945082;28;46352;-83
2021/08/01 02:07:20;;;;;;;;;7.00;6.00;;;;;18.56;56.39;100836.22;4931957;28;45927;-83
2021/08/01 02:10:03;;;;;;;;;6.50;6.00;;;;;18.60;56.47;100847.66;4926907;28;45494;-83
2021/08/01 02:12:55;;;;;;;;;6.00;6.00;;;;;18.62;56.45;100843.16;4943821;28;45202;-82
2021/08/01 02:15:25;;;;;;;;;7.75;7.75;;;;;18.59;56.14;100846.78;4926481;28;47416;-83
2021/08/01 02:18:02;;;;;;;;;8.50;6.75;;;;;18.60;56.39;100848.50;4944625;28;45555;-83
2021/08/01 02:20:41;;;;;;;;;6.00;6.00;;;;;18.48;56.71;100836.50;4927325;28;45456;-83
2021/08/01 02:23:09;;;;;;;;;6.00;5.25;;;;;18.58;56.64;100845.06;4938180;28;45473;-83
2021/08/01 02:25:36;;;;;;;;;7.25;7.00;;;;;18.58;56.51;100849.50;4945863;28;46236;-83
2021/08/01 02:28:04;;;;;;;;;9.00;9.00;;;;;18.53;56.79;100847.00;4930090;28;45454;-83
2021/08/01 02:30:30;;;;;;;;;6.50;5.50;;;;;18.42;57.26;100833.19;4933245;28;45292;-83
2021/08/01 02:32:57;;;;;;;;;7.75;7.00;;;;;18.43;56.97;100838.44;4934386;28;45213;-83
2021/08/01 02:35:23;;;;;;;;;7.75;6.75;;;;;18.42;57.02;100827.84;4926931;28;47070;-83
2021/08/01 02:37:53;;;;;;;;;11.00;8.00;;;;;18.42;57.30;100835.84;4938683;28;45196;-83
2021/08/01 02:40:19;;;;;;;;;9.50;9.50;;;;;18.41;57.22;100832.28;4956425;28;45476;-83
2021/08/01 02:42:46;;;;;;;;;11.00;9.00;;;;;18.38;56.97;100829.75;4946706;28;45632;-83
2021/08/01 02:45:12;;;;;;;;;8.75;8.00;;;;;18.43;57.06;100840.25;4945279;28;45290;-84
2021/08/01 02:47:40;;;;;;;;;7.00;7.00;;;;;18.35;57.22;100824.53;4927514;28;45314;-84
2021/08/01 02:50:10;;;;;;;;;9.25;8.50;;;;;18.43;57.06;100837.59;4964154;28;45418;-83
2021/08/01 02:52:54;;;;;;;;;8.75;8.75;;;;;18.38;57.39;100826.22;4932974;28;45495;-83
2021/08/01 02:55:20;;;;;;;;;9.25;8.00;;;;;18.27;57.23;100816.78;4943699;28;46247;-83
2021/08/01 02:57:48;;;;;;;;;8.00;7.50;;;;;18.28;57.48;100834.53;4927553;28;45336;-84
2021/08/01 03:00:15;;;;;;;;;7.25;7.00;;;;;18.27;57.19;100832.78;4959552;28;45447;-84
2021/08/01 03:02:41;;;;;;;;;6.00;6.00;;;;;18.23;57.57;100831.16;4950399;28;45447;-82
2021/08/01 03:05:09;;;;;;;;;7.00;7.00;;;;;18.14;57.61;100818.13;4926525;28;45878;-83
2021/08/01 03:07:39;;;;;;;;;9.00;8.00;;;;;18.07;57.75;100813.94;4948224;28;45378;-83
2021/08/01 03:10:05;;;;;;;;;5.50;5.00;;;;;18.20;57.91;100849.03;4925668;28;45322;-84
2021/08/01 03:12:30;;;;;;;;;6.75;6.75;;;;;18.07;58.28;100829.94;4942953;28;45397;-83
2021/08/01 03:14:56;;;;;;;;;9.25;7.00;;;;;18.15;57.82;100842.97;4925939;28;47209;-82
2021/08/01 03:17:21;;;;;;;;;10.50;6.25;;;;;17.94;58.28;100804.63;4925936;28;45423;-83
2021/08/01 03:19:47;;;;;;;;;6.25;6.25;;;;;18.01;58.30;100830.97;4943815;28;45222;-83
2021/08/01 03:22:12;;;;;;;;;6.00;6.00;;;;;18.01;58.38;100833.66;4926082;28;45382;-83
2021/08/01 03:24:37;;;;;;;;;5.25;5.25;;;;;17.92;58.22;100811.78;4951887;28;47526;-83
2021/08/01 03:27:03;;;;;;;;;5.50;5.50;;;;;17.93;58.19;100810.84;4945584;28;45418;-83
2021/08/01 03:29:28;;;;;;;;;6.00;6.00;;;;;17.98;57.96;100822.22;4930249;28;45382;-83
2021/08/01 03:31:54;;;;;;;;;7.00;7.00;;;;;17.97;58.19;100825.84;4951625;28;45283;-83
2021/08/01 03:34:20;;;;;;;;;8.00;8.00;;;;;17.80;58.41;100802.38;4926047;28;48271;-83
2021/08/01 03:36:47;;;;;;;;;6.75;6.75;;;;;17.93;58.78;100833.03;4926175;28;45278;-84
2021/08/01 03:39:15;;;;;;;;;6.00;6.00;;;;;17.88;58.55;100829.63;4943742;28;45240;-83
2021/08/01 03:41:41;;;;;;;;;6.25;6.00;;;;;17.79;58.48;100813.97;4925598;28;45498;-84
2021/08/01 03:44:06;;;;;;;;;6.00;5.50;;;;;17.77;59.01;100807.78;4954490;28;45539;-83
2021/08/01 03:46:32;;;;;;;;;8.00;7.50;;;;;17.78;58.87;100820.19;4944037;28;45446;-84
2021/08/01 03:48:57;;;;;;;;;8.00;8.00;;;;;17.86;58.69;100834.16;4935714;28;45448;-83
2021/08/01 03:51:23;;;;;;;;;10.75;9.00;;;;;17.79;59.23;100825.50;4927135;28;45722;-84
2021/08/01 03:53:48;;;;;;;;;7.50;5.50;;;;;17.78;59.34;100828.19;4957539;28;45535;-83
2021/08/01 03:56:14;;;;;;;;;7.00;7.00;;;;;17.78;59.08;100839.72;4941737;28;45324;-83
2021/08/01 03:58:39;;;;;;;;;7.00;7.00;;;;;17.72;59.21;100831.03;4944760;28;45394;-83
2021/08/01 04:01:04;;;;;;;;;8.00;8.00;;;;;17.67;59.11;100823.22;4956368;28;45434;-83
2021/08/01 04:03:30;;;;;;;;;7.00;6.75;;;;;17.76;59.79;100833.56;4943755;28;46158;-83
2021/08/01 04:05:58;;;;;;;;;8.00;7.50;;;;;17.72;59.16;100831.94;4928895;28;45193;-83
2021/08/01 04:08:23;;;;;;;;;9.75;7.50;;;;;17.62;59.40;100815.34;4953427;28;45232;-83
2021/08/01 04:10:48;;;;;;;;;6.75;6.75;;;;;17.69;59.64;100817.81;4941957;28;45171;-84
2021/08/01 04:13:14;;;;;;;;;8.00;8.00;;;;;17.65;59.39;100814.38;4942496;28;45375;-83
2021/08/01 04:15:45;;;;;;;;;9.00;6.75;;;;;17.74;59.58;100829.19;4924851;28;45169;-84
2021/08/01 04:18:10;;;;;;;;;8.00;8.00;;;;;17.76;59.63;100836.22;4925794;28;45340;-83
2021/08/01 04:20:37;;;;;;;;;8.25;8.25;;;;;17.56;59.63;100806.69;4942804;28;45410;-83
2021/08/01 04:23:02;;;;;;;;;4.75;4.75;;;;;17.63;59.61;100824.22;4925758;28;48096;-83
2021/08/01 04:25:28;;;;;;;;;8.00;8.00;;;;;17.62;59.79;100822.47;4945430;28;45244;-83
2021/08/01 04:27:53;;;;;;;;;7.00;7.00;;;;;17.59;59.47;100814.59;4954077;28;45158;-83
2021/08/01 04:30:19;;;;;;;;;9.00;6.75;;;;;17.59;59.86;100814.59;4945124;28;45247;-83
2021/08/01 04:32:44;;;;;;;;;7.00;6.00;;;;;17.68;59.40;100840.06;4961506;28;46573;-83
2021/08/01 04:35:10;;;;;;;;;6.25;6.00;;;;;17.51;59.60;100806.84;4961822;28;45256;-84
2021/08/01 04:37:36;;;;;;;;;7.50;6.00;;;;;17.64;59.61;100836.59;4962297;28;45488;-84
2021/08/01 04:40:01;;;;;;;;;9.75;5.50;;;;;17.57;59.76;100825.28;4927386;28;45426;-83
2021/08/01 04:42:27;;;;;;;;;9.50;8.25;;;;;17.63;59.89;100838.38;4925044;28;46941;-84
2021/08/01 04:44:52;;;;;;;;;9.75;8.75;;;;;17.59;59.77;100826.09;4942100;28;45481;-83
2021/08/01 04:47:17;;;;;;;;;6.25;6.25;;;;;17.54;59.92;100812.06;4925550;28;45367;-84
2021/08/01 04:49:44;;;;;;;;;7.00;7.00;;;;;17.51;59.98;100808.63;4941678;28;44879;-84
2021/08/01 04:52:17;;;;;;;;;10.00;7.75;;;;;17.65;60.33;100833.03;4946706;28;47046;-86
2021/08/01 04:54:43;;;;;;;;;7.75;6.75;;;;;17.69;60.13;100832.00;4945799;28;45339;-84
2021/08/01 04:57:12;;;;;;;;;8.75;6.50;;;;;17.61;60.22;100820.72;4945634;28;45358;-86
2021/08/01 04:59:38;;;;;;;;;6.25;5.25;;;;;17.54;60.07;100814.72;4960126;28;45616;-86
2021/08/01 05:02:03;;;;;;;;;6.00;6.00;;;;;17.69;60.18;100841.78;4951830;28;45293;-90
2021/08/01 05:04:34;;;;;;;;;5.75;5.75;;;;;17.68;60.04;100842.72;4946762;28;46555;-85
2021/08/01 05:07:02;;;;;;;;;10.50;7.00;;;;;17.65;59.97;100843.69;4965855;28;45425;-89
2021/08/01 05:09:28;;;;;;;;;6.75;5.25;;;;;17.59;60.20;100835.91;4948292;28;45280;-87
2021/08/01 05:11:53;;;;;;;;;7.00;7.00;;;;;17.44;60.23;100809.75;4937126;28;47260;-89
2021/08/01 05:14:29;;;;;;;;;5.00;5.00;;;;;17.47;60.11;100815.84;4950193;28;45343;-83
2021/08/01 05:16:54;;;;;;;;;8.00;7.00;;;;;17.41;59.78;100805.38;4959279;28;44640;-84
2021/08/01 05:19:20;;;;;;;;;5.25;5.25;;;;;17.48;59.97;100824.69;4959975;28;45208;-88
2021/08/01 05:21:45;;;;;;;;;5.50;4.75;;;;;17.35;60.36;100802.94;4941162;28;46045;-85
2021/08/01 05:24:11;;;;;;;;;5.75;5.75;;;;;17.45;60.37;100816.78;4929631;28;45820;-89
2021/08/01 05:26:36;;;;;;;;;6.00;6.00;;;;;17.42;60.19;100820.44;4944539;28;45322;-89
2021/08/01 05:29:02;;;;;;;;;5.75;4.50;;;;;17.41;60.19;100822.22;4939242;28;45503;-92
2021/08/01 05:31:27;;;;;;;;;6.25;5.25;;;;;17.54;60.05;100843.16;4947178;28;46967;-89
2021/08/01 05:33:52;;;;;;;;;6.75;6.75;;;;;17.42;60.28;100825.75;4926993;28;45355;-88
2021/08/01 05:36:27;;;;;;;;;4.50;4.50;;;;;17.60;60.24;100845.59;4957535;28;45469;-88
2021/08/01 05:38:55;;;;;;;;;6.00;5.00;;;;;17.49;60.19;100826.44;4936639;28;45576;-88
2021/08/01 05:41:24;;;;;;;;;6.25;4.75;;;;;17.54;60.30;100835.16;4946596;28;47209;-88
2021/08/01 05:44:23;;;;;;;;;;;;;;;;;;;;;
2021/08/01 05:47:00;;;;;;;;;4.75;4.75;;;;;17.60;60.07;100849.13;4944879;28;69159;-90
2021/08/01 05:49:28;;;;;;;;;4.50;4.50;;;;;17.47;60.63;100831.81;4941690;28;45264;-91
2021/08/01 05:51:54;;;;;;;;;7.00;5.25;;;;;17.59;60.47;100850.06;4933802;28;47134;-92
2021/08/01 05:54:19;;;;;;;;;4.75;4.75;;;;;17.49;60.53;100842.41;4934295;28;45282;-92
2021/08/01 05:56:45;;;;;;;;;3.75;3.75;;;;;17.56;60.16;100854.59;4951290;28;45230;-90
2021/08/01 05:59:13;;;;;;;;;4.25;4.00;;;;;17.58;60.36;100850.97;4941907;28;45548;-90
2021/08/01 06:01:38;;;;;;;;;4.75;3.75;;;;;17.50;60.38;100837.03;4961991;28;47204;-85
2021/08/01 06:04:04;;;;;;;;;5.00;4.00;;;;;17.48;60.50;100832.66;4930962;28;45342;-87
2021/08/01 06:06:29;;;;;;;;;7.00;3.75;;;;;17.57;60.37;100853.69;4954718;28;45294;-87
2021/08/01 06:08:56;;;;;;;;;5.00;4.00;;;;;17.49;60.81;100839.75;4928793;28;45438;-88
2021/08/01 06:11:22;;;;;;;;;5.00;4.00;;;;;17.49;60.34;100837.97;4925570;28;47160;-89
2021/08/01 06:13:50;;;;;;;;;4.00;4.00;;;;;17.51;61.09;100840.56;4955807;28;45315;-89
2021/08/01 06:16:18;;;;;;;;;7.75;6.25;;;;;17.63;61.03;100859.69;4936680;28;45429;-84
2021/08/01 06:18:44;;;;;;;;;5.75;5.75;;;;;17.65;60.27;100864.97;4947686;28;45371;-87
2021/08/01 06:21:16;;;;;;;;;5.75;5.75;;;;;17.49;60.96;100840.63;4938252;28;46920;-85
2021/08/01 06:23:52;;;;;;;;;5.75;4.75;;;;;17.47;60.92;100845.13;4926882;28;45550;-90
2021/08/01 06:26:19;;;;;;;;;8.00;6.00;;;;;17.54;60.92;100856.47;4927021;28;45458;-90
2021/08/01 06:28:45;;;;;;;;;8.00;6.50;;;;;17.50;61.05;100841.50;4957614;28;45372;-89
2021/08/01 06:31:11;;;;;;;;;8.75;6.00;;;;;17.53;61.05;100847.56;4952383;28;45180;-91
2021/08/01 06:33:38;;;;;;;;;5.25;5.25;;;;;17.65;61.37;100867.66;4929791;28;45535;-88
2021/08/01 06:36:05;;;;;;;;;6.50;5.50;;;;;17.55;61.49;100864.38;4927327;28;45274;-82
2021/08/01 06:38:31;;;;;;;;;4.75;4.50;;;;;17.60;61.50;100870.44;4949197;28;45350;-89
2021/08/01 06:40:59;;;;;;;;;6.50;5.00;;;;;17.55;61.25;100848.41;4946693;28;47010;-91
2021/08/01 06:43:25;;;;;;;;;7.00;5.50;;;;;17.63;61.12;100859.69;4927529;28;45471;-82
2021/08/01 06:45:53;;;;;;;;;6.75;6.25;;;;;17.74;61.26;100882.44;4943877;28;45248;-86
2021/08/01 06:48:18;;;;;;;;;4.25;3.00;;;;;17.69;60.90;100863.09;4948807;28;45300;-89
2021/08/01 06:50:44;;;;;;;;;6.00;4.75;;;;;17.79;61.67;100883.22;4964379;28;45476;-90
2021/08/01 06:53:09;;;;;;;;;4.75;4.75;;;;;17.82;61.09;100881.31;4935743;28;45297;-92
2021/08/01 06:55:34;;;;;;;;;4.75;4.75;;;;;17.82;61.48;100880.44;4947613;28;45247;-93
2021/08/01 06:58:02;;;;;;;;;4.00;4.00;;;;;17.76;61.54;100857.53;4934538;28;45860;-91
2021/08/01 07:00:28;;;;;;;;;4.00;3.00;;;;;17.90;61.19;100872.22;4946684;28;48261;-90
2021/08/01 07:02:55;;;;;;;;;3.75;3.75;;;;;17.91;61.02;100876.63;4946652;28;45367;-90
2021/08/01 07:05:21;;;;;;;;;4.00;4.00;;;;;17.92;61.11;100873.91;4947594;28;45196;-89
2021/08/01 07:07:46;;;;;;;;;4.25;4.00;;;;;17.98;61.18;100884.38;4946896;28;45234;-89
2021/08/01 07:10:11;;;;;;;;;4.00;4.00;;;;;17.98;61.48;100873.72;4952169;28;48049;-90
2021/08/01 07:12:41;;;;;;;;;2.25;2.25;;;;;18.08;60.60;100883.16;4932298;28;45241;-93
2021/08/01 07:15:11;;;;;;;;;6.00;4.00;;;;;18.08;60.63;100875.16;4947687;28;45382;-91
2021/08/01 07:17:36;;;;;;;;;2.75;2.75;;;;;18.08;60.93;100875.16;4933048;28;45317;-84
2021/08/01 07:20:02;;;;;;;;;3.00;3.00;;;;;18.07;60.63;100872.56;4965478;28;45445;-92
2021/08/01 07:22:28;;;;;;;;;5.50;4.75;;;;;18.20;60.29;100894.31;4928815;28;45319;-89
2021/08/01 07:24:54;;;;;;;;;2.50;2.50;;;;;18.17;59.82;100875.78;4926662;28;45450;-86
2021/08/01 07:27:19;;;;;;;;;3.00;3.00;;;;;18.35;60.15;100898.28;4944512;28;45278;-84
2021/08/01 07:29:44;;;;;;;;;3.50;2.25;;;;;18.43;59.56;100901.56;4931005;28;48657;-85
2021/08/01 07:32:10;;;;;;;;;3.33;3.33;;;;;18.31;59.66;100881.53;4955498;28;45460;-85
2021/08/01 07:34:35;;;;;;;;;4.00;3.00;;;;;18.56;59.08;100910.03;4926066;28;45911;-85
2021/08/01 07:37:01;;;;;;;;;4.25;3.00;;;;;18.56;58.21;100892.22;4956309;28;45335;-84
2021/08/01 07:39:26;;;;;;;;;3.00;3.00;;;;;18.61;57.54;100897.41;4954881;28;45650;-84
2021/08/01 07:41:52;;;;;;;;;2.00;2.00;;;;;18.78;57.00;100918.19;4926489;28;45416;-85
2021/08/01 07:44:17;;;;;;;;;2.00;2.00;;;;;18.81;56.86;100912.75;4942613;28;45300;-84
2021/08/01 07:46:43;;;;;;;;;2.75;1.75;;;;;18.79;56.58;100893.25;4930760;28;45474;-84
2021/08/01 07:49:08;;;;;;;;;1.33;1.33;;;;;18.83;55.60;100886.88;4951860;28;46181;-85
2021/08/01 07:51:34;;;;;;;;;2.00;2.00;;;;;18.97;54.63;100911.25;4944931;28;45566;-87
2021/08/01 07:53:59;;;;;;;;;2.00;1.00;;;;;19.06;55.20;100915.38;4927143;28;45632;-84
2021/08/01 07:56:24;;;;;;;;;1.67;1.67;;;;;19.03;54.72;100899.50;4942575;28;45378;-82
2021/08/01 07:58:50;;;;;;;;;0.75;0.50;;;;;19.24;54.37;100913.84;4944687;28;45388;-80
2021/08/01 08:01:15;;;;;;;;;1.75;1.00;;;;;19.26;54.43;100901.34;4940763;28;45418;-80
2021/08/01 08:03:42;;;;;;;;;2.00;1.00;;;;;19.35;54.40;100896.53;4925740;28;45452;-81
2021/08/01 08:06:07;;;;;;;;;0.67;0.67;;;;;19.47;54.13;100897.84;4925067;28;45435;-81
2021/08/01 08:08:33;;;;;;;;;3.75;1.75;;;;;19.57;53.84;100893.03;4929732;28;48348;-88
2021/08/01 08:10:58;;;;;;;;;1.67;1.67;;;;;19.69;53.68;100894.38;4938563;28;45260;-87
2021/08/01 08:13:24;;;;;;;;;1.00;1.00;;;;;19.83;53.60;100892.91;4926092;28;45382;-87
2021/08/01 08:15:49;;;;;;;;;2.33;1.00;;;;;19.95;53.42;100893.34;4925680;28;45430;-86
2021/08/01 08:18:14;;;;;;;;;2.00;2.00;;;;;20.15;53.37;100914.78;4925352;28;47027;-84
2021/08/01 08:20:40;;;;;;;;;1.33;0.67;;;;;20.20;52.97;100904.78;4955998;28;45292;-85
2021/08/01 08:23:05;;;;;;;;;1.67;1.67;;;;;20.25;52.75;100893.91;4943347;28;45690;-87
2021/08/01 08:25:31;;;;;;;;;1.67;1.67;;;;;20.36;52.70;100904.16;4947093;28;45367;-87
2021/08/01 08:27:57;;;;;;;;;2.67;2.00;;;;;20.39;52.13;100909.34;4934682;28;47189;-87
2021/08/01 08:30:22;;;;;;;;;0.33;0.00;;;;;20.47;51.01;100915.25;4928681;28;45344;-86
2021/08/01 08:32:47;;;;;;;;;0.00;0.00;;;;;20.48;50.45;100920.56;4952072;28;45534;-88
2021/08/01 08:35:13;;;;;;;;;1.00;1.00;;;;;20.42;49.86;100903.88;4925289;28;45489;-88
2021/08/01 08:37:49;;;;;;;;;0.33;0.33;;;;;20.55;49.37;100915.81;4938151;28;46120;-83
2021/08/01 08:40:17;;;;;;;;;1.00;1.00;;;;;20.63;48.76;100926.22;4951396;28;45320;-84
2021/08/01 08:42:45;;;;;;;;;1.00;1.00;;;;;20.68;48.80;100925.06;4934458;28;45281;-88
2021/08/01 08:45:14;;;;;;;;;1.00;1.00;;;;;20.60;49.06;100902.25;4955405;28;45358;-88
2021/08/01 08:47:41;;;;;;;;;1.00;0.67;;;;;20.79;49.25;100927.28;4937889;28;46356;-90
2021/08/01 08:50:07;;;;;;;;;0.67;0.67;;;;;20.77;48.50;100915.81;4938485;28;45298;-86
2021/08/01 08:52:35;;;;;;;;;2.00;1.00;;;;;20.96;48.50;100915.88;4956347;28;45295;-87
2021/08/01 08:55:03;;;;;;;;;3.67;3.00;;;;;21.03;48.03;100920.00;4938941;28;45466;-89
2021/08/01 08:57:33;;;;;;;;;2.33;2.33;;;;;21.23;48.01;100931.63;4942021;28;47559;-91
2021/08/01 09:00:08;;;;;;;;;0.00;0.00;;;;;21.28;47.53;100932.31;4967547;28;45215;-88
2021/08/01 09:02:34;;;;;;;;;1.00;1.00;;;;;21.34;47.75;100914.13;4948191;28;44660;-86
2021/08/01 09:05:03;;;;;;;;;1.00;0.67;;;;;21.42;47.70;100912.94;4946618;28;45163;-87
2021/08/01 09:07:29;;;;;;;;;3.00;1.00;;;;;21.54;47.70;100920.41;4936180;28;47954;-86
2021/08/01 09:09:55;;;;;;;;;2.00;2.00;;;;;21.55;47.54;100917.66;4926255;28;45205;-89
2021/08/01 09:12:21;;;;;;;;;1.00;1.00;;;;;21.59;47.74;100915.69;4929685;28;45359;-87
2021/08/01 09:14:47;;;;;;;;;1.00;1.00;;;;;21.71;46.98;100922.31;4955694;28;45237;-90
2021/08/01 09:17:33;;;;;;;;;1.00;1.00;;;;;21.71;47.61;100935.72;4964948;28;45326;-84
2021/08/01 09:20:31;;;;;;;;;0.67;0.67;;;;;21.59;47.37;100926.41;4954421;28;45315;-87
2021/08/01 09:22:59;;;;;;;;;1.00;0.67;;;;;21.65;46.91;100934.19;4943679;28;45421;-87
2021/08/01 09:25:32;;;;;;;;;1.00;1.00;;;;;21.63;47.13;100932.53;4924198;28;46019;-86
2021/08/01 09:28:09;;;;;;;;;0.67;0.67;;;;;21.67;47.26;100928.75;4926842;28;48649;-87
2021/08/01 09:30:58;;;;;;;;;1.00;1.00;;;;;21.55;46.77;100917.66;4927559;28;45467;-87
2021/08/01 09:33:50;;;;;;;;;1.00;1.00;;;;;21.64;46.33;100926.22;4931191;28;45476;-84
2021/08/01 09:36:24;;;;;;;;;2.00;0.67;;;;;21.66;46.19;100924.34;4948582;28;45256;-88
2021/08/01 09:42:54;;;;;;;;;0.67;0.67;;;;;21.83;46.33;100928.88;4831224;29;45354;-84
2021/08/01 09:45:53;;;;;;;;;;;;;;;;;;;;;
2021/08/01 09:48:20;;;;;;;;;1.67;1.00;;;;;21.98;45.73;100918.28;4834118;29;72710;-82
2021/08/01 09:51:08;;;;;;;;;0.00;0.00;;;;;22.08;44.63;100923.19;4837212;29;47326;-85
2021/08/01 09:53:35;;;;;;;;;1.67;1.67;;;;;22.21;44.69;100936.00;4864361;28;45808;-85
2021/08/01 09:56:41;;;;;;;;;0.00;0.00;;;;;22.32;44.38;100927.41;4942503;28;45283;-82
2021/08/01 09:59:19;;;;;;;;;0.00;0.00;;;;;22.38;44.05;100926.22;4952191;28;45556;-82
2021/08/01 10:02:02;;;;;;;;;0.00;0.00;;;;;22.43;43.35;100927.75;4944108;28;46555;-81
2021/08/01 10:04:40;;;;;;;;;0.00;0.00;;;;;22.51;42.75;100927.34;4944034;28;45235;-80
2021/08/01 10:07:07;;;;;;;;;0.00;0.00;;;;;22.58;43.18;100904.59;4947585;28;45236;-80
2021/08/01 10:09:37;;;;;;;;;1.00;1.00;;;;;22.73;43.17;100912.84;4927170;28;45869;-80
2021/08/01 10:12:03;;;;;;;;;0.00;0.00;;;;;22.86;43.27;100913.94;4944156;28;46433;-83
2021/08/01 10:14:30;;;;;;;;;1.00;1.00;;;;;22.94;42.77;100916.22;4963356;28;45299;-80
2021/08/01 10:16:56;;;;;;;;;0.00;0.00;;;;;22.98;42.51;100907.06;4950221;28;45503;-80
2021/08/01 10:19:22;;;;;;;;;0.67;0.67;;;;;23.02;42.46;100900.59;4943828;28;45469;-84
2021/08/01 10:21:51;;;;;;;;;2.00;2.00;;;;;23.10;42.48;100896.56;4935749;28;47940;-80
2021/08/01 10:24:23;;;;;;;;;0.00;0.00;;;;;23.21;41.80;100906.72;4960289;28;47402;-80
2021/08/01 10:26:51;;;;;;;;;0.00;0.00;;;;;23.24;42.03;100901.19;4942095;28;45966;-80
2021/08/01 10:29:45;;;;;;;;;0.67;0.67;;;;;23.31;41.39;100901.72;4957752;28;45700;-80
2021/08/01 10:32:12;;;;;;;;;0.00;0.00;;;;;23.37;41.13;100893.31;4936225;28;46016;-79
2021/08/01 10:34:59;;;;;;;;;0.00;0.00;;;;;23.49;40.76;100894.47;4960753;28;45384;-80
2021/08/01 10:37:39;;;;;;;;;0.00;0.00;;;;;23.49;40.50;100889.94;4928158;28;45712;-84
2021/08/01 10:40:07;;;;;;;;;1.00;1.00;;;;;23.55;41.50;100886.94;4957168;28;45572;-81
2021/08/01 10:42:37;;;;;;;;;1.00;1.00;;;;;23.59;40.27;100892.13;4942962;28;47757;-82
2021/08/01 10:45:05;;;;;;;;;2.00;0.00;;;;;23.58;39.82;100893.09;4955328;28;45507;-81
2021/08/01 10:47:33;;;;;;;;;0.00;0.00;;;;;23.62;39.23;100892.81;4938128;28;45759;-81
2021/08/01 10:50:05;;;;;;;;;1.00;1.00;;;;;23.69;39.67;100891.53;4931841;28;45555;-86
2021/08/01 10:52:34;;;;;;;;;1.00;1.00;;;;;23.85;39.85;100896.94;4954107;28;46573;-85
2021/08/01 10:55:28;;;;;;;;;0.00;0.00;;;;;23.98;39.39;100899.81;4968045;28;45446;-86
2021/08/01 10:58:38;;;;;;;;;0.00;0.00;;;;;24.01;39.60;100896.09;4958119;28;45686;-88
2021/08/01 11:01:08;;;;;;;;;2.00;2.00;;;;;23.98;39.09;100889.91;4925755;28;45468;-83
2021/08/01 11:04:43;;;;;;;;;;;;;;;;;;;;;
2021/08/01 11:07:23;;;;;;;;;0.00;0.00;;;;;24.08;38.81;100884.00;4930224;28;45257;-81
2021/08/01 11:13:54;;;;;;;;;0.00;0.00;;;;;24.13;38.43;100874.69;4800611;29;45478;-81
2021/08/01 11:17:19;;;;;;;;;0.00;0.00;;;;;24.18;38.69;100880.69;4776109;29;47350;-81
2021/08/01 11:51:43;;;;;;;;;;;;;;;;;;;;;
2021/08/01 11:57:34;;;;;;;;;2.00;2.00;;;;;25.09;36.92;100848.31;4611499;30;46129;-81
2021/08/01 12:00:24;;;;;;;;;2.00;2.00;;;;;25.04;37.29;100855.81;4735296;29;45879;-82
2021/08/01 12:03:00;;;;;;;;;2.67;2.67;;;;;25.22;36.69;100859.22;4805637;29;45449;-80
2021/08/01 12:05:50;;;;;;;;;14.00;11.00;;;;;25.33;36.63;100861.22;4836075;29;45490;-80
2021/08/01 12:08:34;;;;;;;;;3.00;3.00;;;;;25.34;37.38;100858.44;4872133;29;45425;-82
2021/08/01 12:11:17;;;;;;;;;2.00;2.00;;;;;25.26;37.13;100864.31;4854250;29;45230;-81
2021/08/01 12:14:04;;;;;;;;;1.00;1.00;;;;;25.07;37.75;100863.69;4867492;28;45481;-82
2021/08/01 12:16:32;;;;;;;;;1.00;1.00;;;;;24.94;37.97;100855.53;4942094;28;45261;-82
2021/08/01 12:19:57;;;;;;;;;3.67;3.00;;;;;25.00;37.54;100867.75;4939876;28;46159;-83
2021/08/01 12:22:54;;;;;;;;;1.00;1.00;;;;;25.05;38.08;100865.66;4949912;28;45420;-84
2021/08/01 12:29:08;;;;;;;;;2.67;1.67;;;;;25.38;37.13;100865.38;4907104;28;45622;-86